TimeGMT,TemperatureF,Dew PointF,Humidity,Sea Level PressureIn,VisibilityMPH,Wind Direction,Wind SpeedMPH,Gust SpeedMPH,PrecipitationIn,Events,Conditions,WindDirDegrees,DateUTC
12:00 AM,41,40,95,29.86,,West,2.2,,,,,280,2013-01-17 00:00:00
6:00 AM,39,39,99,29.82,0,ESE,6.7,,,Fog,Heavy Fog,120,2013-01-17 06:00:00
8:00 AM,39.2,39.2,100,29.77,0.1,SE,5.8,-,N/A,Fog,Fog,130,2013-01-17 08:00:00
8:30 AM,39.2,39.2,100,29.77,0.1,SE,5.8,-,N/A,Fog,Fog,130,2013-01-17 08:30:00
9:30 AM,39.2,39.2,100,29.74,0.1,SE,6.9,-,N/A,Fog,Fog,130,2013-01-17 09:30:00
10:00 AM,39.2,39.2,100,29.74,0.1,SE,9.2,-,N/A,Fog,Fog,130,2013-01-17 10:00:00
10:30 AM,39.2,39.2,100,29.74,0.1,SE,9.2,-,N/A,Fog,Fog,140,2013-01-17 10:30:00
11:00 AM,39.2,39.2,100,29.71,0.1,SE,10.4,-,N/A,Fog,Fog,140,2013-01-17 11:00:00
11:30 AM,39.2,39.2,100,29.71,0.1,SE,10.4,-,N/A,Fog,Fog,140,2013-01-17 11:30:00
12:00 PM,40,40,100,29.72,0,SE,11.2,,,Rain,Light Drizzle,140,2013-01-17 12:00:00
12:00 PM,41.0,41.0,100,29.68,0.1,SE,11.5,-,N/A,Fog,Light Drizzle,140,2013-01-17 12:00:00
12:30 PM,41.0,41.0,100,29.68,0.2,SE,12.7,-,N/A,Fog,Fog,140,2013-01-17 12:30:00
1:00 PM,41.0,41.0,100,29.65,0.7,SE,13.8,-,N/A,Fog,Overcast,130,2013-01-17 13:00:00
1:30 PM,41.0,41.0,100,29.62,5.6,SE,15.0,-,N/A,,Mostly Cloudy,130,2013-01-17 13:30:00
2:00 PM,41.0,41.0,100,29.62,6.2,SE,15.0,-,N/A,,Mostly Cloudy,140,2013-01-17 14:00:00
2:30 PM,41.0,41.0,100,29.59,6.2,SE,13.8,-,N/A,,Mostly Cloudy,130,2013-01-17 14:30:00
3:00 PM,41.0,41.0,100,29.59,6.2,SE,15.0,-,N/A,,Overcast,130,2013-01-17 15:00:00
3:30 PM,41.0,39.2,93,29.56,6.2,SE,15.0,-,N/A,,Overcast,140,2013-01-17 15:30:00
4:00 PM,41.0,41.0,100,29.56,6.2,SE,15.0,-,N/A,,Overcast,130,2013-01-17 16:00:00
4:30 PM,41.0,41.0,100,29.53,6.2,SE,15.0,26.5,N/A,,Mostly Cloudy,130,2013-01-17 16:30:00
5:00 PM,41.0,41.0,100,29.50,6.2,SE,15.0,-,N/A,,Mostly Cloudy,130,2013-01-17 17:00:00
6:00 PM,42,41,95,29.51,16,SE,17.9,,,,Partly Cloudy,130,2013-01-17 18:00:00